Time;durP1;ratioP1;P1;durP2;ratioP2;P2;SDS_P1;SDS_P2;PMS_P1;PMS_P2;Temp;Humidity;BMP_temperature;BMP_pressure;BME280_temperature;BME280_humidity;BME280_pressure;Samples;Min_cycle;Max_cycle;Signal;HPM_P1;HPM_P2
2022/03/27 00:00:06;;;;;;;37.92;15.48;;;;;;;6.20;53.13;95576.97;5080239;28;20222;-77
2022/03/27 00:02:33;;;;;;;32.20;11.05;;;;;;;6.23;52.85;95573.72;5084990;28;20323;-77
2022/03/27 00:05:00;;;;;;;30.52;11.60;;;;;;;6.20;53.36;95568.88;5083304;28;20202;-77
2022/03/27 00:07:28;;;;;;;22.67;9.30;;;;;;;6.27;52.98;95568.59;5077772;28;20209;-77
2022/03/27 00:09:55;;;;;;;20.38;9.25;;;;;;;6.22;53.76;95572.09;5078179;28;20206;-77
2022/03/27 00:12:22;;;;;;;30.92;10.10;;;;;;;6.25;55.66;95565.38;5084767;28;20256;-77
2022/03/27 00:14:49;;;;;;;32.45;10.57;;;;;;;6.23;54.59;95560.28;5083707;28;20202;-77
2022/03/27 00:17:16;;;;;;;34.10;10.85;;;;;;;6.18;54.74;95568.34;5077680;28;20198;-77
2022/03/27 00:19:42;;;;;;;26.33;10.63;;;;;;;6.13;55.06;95563.03;5079360;28;20222;-77
2022/03/27 00:22:09;;;;;;;24.52;9.63;;;;;;;6.10;55.58;95571.63;5076728;28;20225;-77
2022/03/27 00:24:38;;;;;;;23.80;9.60;;;;;;;6.10;55.91;95563.56;5088564;28;20219;-77
2022/03/27 00:27:05;;;;;;;15.88;7.72;;;;;;;6.40;53.59;95559.91;5090436;28;20206;-77
2022/03/27 00:29:32;;;;;;;18.33;8.73;;;;;;;6.33;54.00;95557.53;5078262;28;20203;-76
2022/03/27 00:31:59;;;;;;;21.95;8.48;;;;;;;6.18;54.21;95565.66;5084382;28;20202;-77
2022/03/27 00:34:27;;;;;;;26.30;9.40;;;;;;;6.04;54.64;95554.69;5084310;28;20610;-77
2022/03/27 00:36:53;;;;;;;22.33;9.07;;;;;;;5.95;55.79;95550.19;5064790;28;20208;-77
2022/03/27 00:39:20;;;;;;;13.32;6.95;;;;;;;6.00;54.99;95548.28;5076736;28;20313;-77
2022/03/27 00:41:49;;;;;;;24.50;9.65;;;;;;;5.89;56.54;95540.50;5084034;28;20230;-77
2022/03/27 00:44:16;;;;;;;16.05;8.10;;;;;;;5.81;57.47;95544.56;5084878;28;20206;-77
2022/03/27 00:46:43;;;;;;;19.17;9.18;;;;;;;5.70;58.78;95533.03;5078418;28;20205;-77
2022/03/27 00:49:11;;;;;;;18.00;8.95;;;;;;;5.67;57.72;95533.59;5077655;28;20288;-77
2022/03/27 00:51:38;;;;;;;26.15;12.60;;;;;;;5.66;59.04;95531.97;5082794;28;20235;-77
2022/03/27 00:54:05;;;;;;;24.52;10.02;;;;;;;5.75;61.99;95526.00;5084178;28;20225;-77
2022/03/27 00:56:32;;;;;;;30.00;11.98;;;;;;;5.61;59.23;95529.28;5078796;28;20279;-77
2022/03/27 00:59:00;;;;;;;24.63;10.68;;;;;;;5.69;63.28;95528.75;5077472;28;20210;-77
2022/03/27 01:01:35;;;;;;;25.45;9.30;;;;;;;5.65;58.83;95522.31;5082233;28;20203;-79
2022/03/27 01:04:02;;;;;;;19.25;8.77;;;;;;;5.64;58.72;95520.69;5083901;28;20229;-76
2022/03/27 01:06:34;;;;;;;19.95;8.27;;;;;;;5.60;61.36;95516.94;5083438;28;20618;-77
2022/03/27 01:11:47;;;;;;;21.67;10.20;;;;;;;5.27;59.55;95517.56;5087874;28;20221;-76
2022/03/27 01:14:19;;;;;;;26.85;10.70;;;;;;;5.23;60.04;95519.19;5081830;28;20195;-76
2022/03/27 01:16:57;;;;;;;21.10;10.75;;;;;;;5.15;60.19;95509.81;5080696;28;20191;-77
2022/03/27 01:19:25;;;;;;;23.25;9.93;;;;;;;5.12;59.67;95514.91;5085072;28;20215;-76
2022/03/27 01:21:54;;;;;;;27.20;9.88;;;;;;;5.15;59.91;95525.13;5090713;28;20657;-76
2022/03/27 01:24:21;;;;;;;23.05;9.70;;;;;;;5.04;59.59;95526.22;5092203;28;20198;-76
2022/03/27 01:26:48;;;;;;;24.58;9.90;;;;;;;4.88;60.44;95518.16;5080791;28;20653;-77
2022/03/27 01:29:15;;;;;;;19.45;9.57;;;;;;;4.77;61.70;95519.25;5082964;28;20199;-77
2022/03/27 01:31:42;;;;;;;19.20;7.80;;;;;;;4.67;62.74;95516.56;5087524;28;20210;-77
2022/03/27 01:34:09;;;;;;;22.08;8.40;;;;;;;4.70;65.94;95523.28;5084163;28;20241;-77
2022/03/27 01:36:37;;;;;;;24.38;9.13;;;;;;;4.75;63.15;95521.41;5080803;28;20652;-77
2022/03/27 01:39:08;;;;;;;17.92;8.50;;;;;;;4.86;65.48;95523.00;5082917;28;20288;-77
2022/03/27 01:41:36;;;;;;;22.20;9.35;;;;;;;4.71;62.46;95530.25;5087479;28;20198;-78
2022/03/27 01:44:06;;;;;;;26.77;8.13;;;;;;;4.50;62.94;95526.75;5085692;28;20236;-78
2022/03/27 01:46:33;;;;;;;23.08;8.52;;;;;;;4.44;63.83;95517.09;5074551;28;20199;-76
2022/03/27 01:49:01;;;;;;;24.45;8.57;;;;;;;4.61;62.65;95525.69;5086502;28;20213;-76
2022/03/27 01:51:29;;;;;;;18.48;8.15;;;;;;;4.73;63.08;95518.19;5068459;28;20334;-77
2022/03/27 01:53:56;;;;;;;23.52;8.10;;;;;;;4.77;63.90;95530.00;5066592;28;20261;-77
2022/03/27 01:56:25;;;;;;;21.90;8.70;;;;;;;4.72;61.79;95532.66;5087819;28;20219;-77
2022/03/27 01:58:52;;;;;;;32.72;11.60;;;;;;;4.63;60.83;95518.19;5086960;28;20293;-76
2022/03/27 02:01:19;;;;;;;19.20;8.40;;;;;;;4.72;63.59;95532.66;5086699;28;20195;-77
2022/03/27 02:03:46;;;;;;;18.05;7.18;;;;;;;4.65;61.16;95518.69;5087028;28;20241;-76
2022/03/27 02:06:13;;;;;;;25.48;7.40;;;;;;;4.71;61.85;95536.41;5080897;28;20198;-77
2022/03/27 02:08:41;;;;;;;16.98;6.53;;;;;;;4.64;61.36;95515.22;5079851;28;20195;-77
2022/03/27 02:11:08;;;;;;;16.25;6.63;;;;;;;4.69;60.08;95527.81;5073229;28;20237;-76
2022/03/27 02:13:37;;;;;;;14.68;6.88;;;;;;;4.64;59.90;95525.16;5087532;28;20222;-77
2022/03/27 02:16:04;;;;;;;25.13;9.60;;;;;;;4.47;60.39;95532.66;5082474;28;20202;-77
2022/03/27 02:18:32;;;;;;;20.23;7.57;;;;;;;4.29;60.50;95534.75;5074638;28;20211;-77
2022/03/27 02:21:00;;;;;;;21.20;7.43;;;;;;;4.18;60.39;95526.97;5062105;28;20219;-76
2022/03/27 02:23:28;;;;;;;20.35;7.40;;;;;;;4.18;60.34;95530.47;5086851;28;20277;-77
2022/03/27 02:25:56;;;;;;;27.30;8.45;;;;;;;4.15;60.86;95533.66;5083454;28;20569;-77
2022/03/27 02:28:23;;;;;;;139.70;37.83;;;;;;;4.19;60.63;95529.38;5086685;28;20290;-77
2022/03/27 02:30:52;;;;;;;91.70;23.23;;;;;;;4.19;61.96;95529.38;5062385;28;20211;-78
2022/03/27 02:33:19;;;;;;;36.70;12.48;;;;;;;4.28;60.36;95533.16;5074053;28;20218;-77
2022/03/27 02:35:46;;;;;;;39.47;11.73;;;;;;;4.43;59.72;95528.88;5082601;28;20210;-77
2022/03/27 02:38:13;;;;;;;26.25;8.48;;;;;;;4.44;59.53;95533.97;5086345;28;20222;-77
2022/03/27 02:40:41;;;;;;;49.95;16.05;;;;;;;4.36;59.48;95537.19;5084178;28;20301;-78
2022/03/27 02:43:09;;;;;;;21.80;6.88;;;;;;;4.24;58.40;95541.97;5079513;28;20238;-78
2022/03/27 02:45:36;;;;;;;16.40;7.00;;;;;;;4.18;60.28;95546.53;5081183;28;20199;-77
2022/03/27 02:48:05;;;;;;;30.23;8.93;;;;;;;4.09;61.67;95545.47;5091730;28;20194;-78
2022/03/27 02:50:32;;;;;;;26.13;9.82;;;;;;;4.04;62.96;95553.47;5080045;28;20235;-78
2022/03/27 02:52:59;;;;;;;26.10;9.00;;;;;;;4.19;62.78;95550.03;5058560;28;20717;-78
2022/03/27 02:55:27;;;;;;;31.17;8.90;;;;;;;4.11;61.16;95551.34;5084706;28;20223;-78
2022/03/27 02:57:55;;;;;;;21.75;7.57;;;;;;;4.13;62.43;95561.81;5078551;28;20229;-76
2022/03/27 03:00:23;;;;;;;34.33;10.73;;;;;;;4.15;62.43;95555.09;5079114;28;20206;-76
2022/03/27 03:02:50;;;;;;;34.17;11.05;;;;;;;4.09;62.14;95560.75;5066055;28;20222;-76
2022/03/27 03:05:19;;;;;;;32.97;10.43;;;;;;;4.15;63.71;95560.47;5078713;28;20199;-77
2022/03/27 03:07:46;;;;;;;13.07;5.40;;;;;;;4.33;61.47;95555.69;5092483;28;20610;-76
2022/03/27 03:10:14;;;;;;;16.73;5.63;;;;;;;4.38;61.18;95563.72;5064963;28;20232;-77
2022/03/27 03:12:42;;;;;;;16.17;6.22;;;;;;;4.27;62.94;95566.41;5084267;28;20265;-77
2022/03/27 03:15:09;;;;;;;19.80;6.97;;;;;;;4.16;62.25;95559.41;5085578;28;20206;-77
2022/03/27 03:17:37;;;;;;;19.85;7.30;;;;;;;4.14;62.48;95564.22;5080468;28;20684;-77
2022/03/27 03:20:05;;;;;;;19.00;6.00;;;;;;;4.03;63.22;95562.59;5078435;28;20206;-77
2022/03/27 03:22:34;;;;;;;12.40;5.45;;;;;;;4.09;63.13;95556.19;5083976;28;20245;-78
2022/03/27 03:25:01;;;;;;;11.70;5.30;;;;;;;4.11;63.13;95559.38;5074784;28;20469;-77
2022/03/27 03:27:28;;;;;;;16.85;6.13;;;;;;;3.96;64.14;95559.34;5092103;28;20681;-77
2022/03/27 03:29:55;;;;;;;13.07;6.13;;;;;;;3.93;65.14;95557.19;5075491;28;20203;-77
2022/03/27 03:32:24;;;;;;;12.80;5.78;;;;;;;3.96;64.19;95561.22;5081111;28;20250;-77
2022/03/27 03:34:51;;;;;;;18.33;6.68;;;;;;;3.92;63.03;95560.94;5078334;28;20206;-77
2022/03/27 03:37:18;;;;;;;17.95;6.20;;;;;;;3.73;65.08;95562.47;5081742;28;20303;-77
2022/03/27 03:39:47;;;;;;;13.82;5.40;;;;;;;3.73;66.77;95557.09;5075063;28;20581;-77
2022/03/27 03:42:14;;;;;;;16.58;6.78;;;;;;;3.76;66.77;95556.59;5081421;28;20210;-77
2022/03/27 03:44:41;;;;;;;14.52;5.88;;;;;;;3.69;66.38;95561.38;5084895;28;20245;-77
2022/03/27 03:47:08;;;;;;;14.63;5.72;;;;;;;3.98;63.71;95562.56;5082551;28;20209;-76
2022/03/27 03:49:35;;;;;;;20.17;6.63;;;;;;;3.59;66.04;95556.75;5078353;28;20225;-76
2022/03/27 03:52:01;;;;;;;12.50;5.88;;;;;;;3.67;66.38;95568.88;5081023;28;20304;-77
2022/03/27 03:54:29;;;;;;;14.00;5.97;;;;;;;3.64;66.49;95570.19;5084985;28;20227;-77
2022/03/27 03:56:57;;;;;;;12.68;5.38;;;;;;;3.50;66.60;95572.53;5082752;28;20206;-77
2022/03/27 03:59:24;;;;;;;18.60;8.15;;;;;;;3.73;67.08;95567.81;5068959;28;20208;-77
2022/03/27 04:01:51;;;;;;;24.20;6.75;;;;;;;3.84;67.33;95566.78;5062873;28;20206;-77
2022/03/27 04:04:17;;;;;;;18.85;6.60;;;;;;;3.83;66.12;95567.84;5084605;28;20231;-77
2022/03/27 04:06:44;;;;;;;14.30;5.88;;;;;;;3.92;67.58;95571.66;5059840;28;20203;-77
2022/03/27 04:09:11;;;;;;;19.13;5.47;;;;;;;3.94;67.00;95574.88;5069406;28;20218;-77
2022/03/27 04:11:38;;;;;;;15.60;7.05;;;;;;;3.77;67.04;95579.63;5083653;28;20202;-77
2022/03/27 04:14:06;;;;;;;15.75;6.22;;;;;;;3.62;66.68;95579.56;5077497;28;20226;-77
2022/03/27 04:16:33;;;;;;;15.57;6.18;;;;;;;3.48;67.82;95590.75;5077537;28;20226;-77
2022/03/27 04:19:00;;;;;;;22.00;6.50;;;;;;;3.62;68.14;95599.13;5077437;28;20209;-77
2022/03/27 04:21:27;;;;;;;15.35;6.10;;;;;;;3.43;67.72;95596.06;5077447;28;20293;-77
2022/03/27 04:23:54;;;;;;;12.55;5.82;;;;;;;3.68;67.70;95591.94;5059598;28;20977;-77
2022/03/27 04:26:21;;;;;;;12.90;5.78;;;;;;;3.84;67.59;95590.91;5084750;28;20206;-77
2022/03/27 04:28:48;;;;;;;12.68;6.57;;;;;;;3.90;67.16;95595.22;5078502;28;20262;-77
2022/03/27 04:31:18;;;;;;;12.80;6.32;;;;;;;4.04;67.11;95599.03;5077451;28;20201;-77
2022/03/27 04:33:45;;;;;;;22.65;6.22;;;;;;;4.20;66.01;95600.72;5082845;28;20214;-78
2022/03/27 04:36:12;;;;;;;15.23;7.35;;;;;;;4.61;65.42;95600.81;5056811;28;20238;-78
2022/03/27 04:38:39;;;;;;;12.65;6.22;;;;;;;5.34;62.30;95599.47;5063326;28;20683;-78
2022/03/27 04:41:06;;;;;;;20.95;6.60;;;;;;;6.22;58.88;95593.63;5067660;28;20286;-78
2022/03/27 04:43:33;;;;;;;14.68;6.55;;;;;;;6.94;56.51;95596.72;5087582;28;20238;-78
2022/03/27 04:46:00;;;;;;;13.93;6.93;;;;;;;7.72;54.46;95597.38;5088594;28;20283;-78
2022/03/27 04:48:29;;;;;;;13.25;7.10;;;;;;;8.55;52.08;95586.16;5083349;28;20198;-78
2022/03/27 04:50:55;;;;;;;15.60;7.93;;;;;;;9.24;49.98;95597.31;5081065;28;20273;-77
2022/03/27 04:53:22;;;;;;;27.75;9.63;;;;;;;9.65;48.53;95597.41;5086514;28;20696;-77
2022/03/27 04:55:50;;;;;;;24.23;9.55;;;;;;;9.97;46.81;95589.25;5087983;28;20214;-77
2022/03/27 04:58:17;;;;;;;21.60;8.82;;;;;;;10.89;45.70;95590.09;5084061;28;20290;-77
2022/03/27 05:00:45;;;;;;;27.63;10.10;;;;;;;11.15;44.23;95599.25;5081530;28;20226;-78
2022/03/27 05:03:14;;;;;;;22.13;10.43;;;;;;;10.98;44.94;95607.22;5085688;28;20235;-77
2022/03/27 05:05:43;;;;;;;19.02;8.85;;;;;;;11.53;42.90;95607.00;5088058;28;20620;-77
2022/03/27 05:08:11;;;;;;;21.02;8.30;;;;;;;11.03;44.02;95615.25;5085034;28;20229;-78
2022/03/27 05:10:38;;;;;;;17.08;9.10;;;;;;;11.89;42.12;95607.72;5068142;28;20203;-78
2022/03/27 05:13:05;;;;;;;20.67;8.50;;;;;;;13.22;39.63;95602.06;5082294;28;20222;-78
2022/03/27 05:15:32;;;;;;;23.50;9.70;;;;;;;13.22;39.22;95600.13;5079749;28;20202;-81
2022/03/27 05:17:59;;;;;;;23.67;10.57;;;;;;;13.83;38.86;95609.03;5083171;28;20598;-78
2022/03/27 05:20:29;;;;;;;21.10;9.88;;;;;;;14.02;38.01;95608.66;5087963;28;20716;-79
2022/03/27 05:22:59;;;;;;;27.38;9.30;;;;;;;14.04;37.91;95592.81;5085310;28;20213;-77
2022/03/27 05:25:27;;;;;;;35.05;14.27;;;;;;;13.26;39.15;95603.81;5087909;28;20222;-79
2022/03/27 05:27:55;;;;;;;26.38;10.00;;;;;;;14.64;37.25;95598.00;5087086;28;20194;-78
2022/03/27 05:30:23;;;;;;;25.15;9.90;;;;;;;15.03;36.26;95598.75;5080571;28;20214;-77
2022/03/27 05:32:50;;;;;;;19.33;9.85;;;;;;;15.95;34.78;95585.75;5081208;28;20195;-78
2022/03/27 05:35:18;;;;;;;24.33;12.88;;;;;;;15.72;34.56;95584.53;5080255;28;20242;-76
2022/03/27 05:37:47;;;;;;;29.30;14.35;;;;;;;16.14;33.63;95594.19;5079851;28;20265;-79
2022/03/27 05:40:18;;;;;;;33.60;15.50;;;;;;;15.59;34.10;95594.59;5067762;28;20707;-79
2022/03/27 05:42:45;;;;;;;29.08;14.02;;;;;;;15.00;35.08;95591.22;5084288;28;20195;-79
2022/03/27 05:45:18;;;;;;;28.02;13.77;;;;;;;15.10;35.06;95599.00;5086109;28;20234;-82
2022/03/27 05:47:45;;;;;;;25.33;11.95;;;;;;;14.06;36.23;95599.53;5075547;28;20230;-76
2022/03/27 05:50:14;;;;;;;26.48;11.98;;;;;;;13.65;36.75;95600.13;5083979;28;20231;-79
2022/03/27 05:52:42;;;;;;;23.90;11.32;;;;;;;13.13;36.91;95604.72;5086832;28;20203;-80
2022/03/27 05:55:10;;;;;;;26.98;11.85;;;;;;;14.22;35.75;95606.03;5073875;28;20293;-79
2022/03/27 05:57:38;;;;;;;23.65;10.95;;;;;;;14.73;34.05;95615.16;5076740;28;20273;-83
2022/03/27 06:00:07;;;;;;;26.17;10.38;;;;;;;15.09;33.22;95602.88;5083605;28;20245;-79
2022/03/27 06:02:35;;;;;;;18.88;9.10;;;;;;;15.29;32.45;95613.00;5077851;28;20260;-84
2022/03/27 06:05:01;;;;;;;18.45;9.30;;;;;;;14.72;33.25;95602.63;5082542;28;20234;-80
2022/03/27 06:07:28;;;;;;;24.17;9.90;;;;;;;15.64;32.27;95608.88;5086472;28;20577;-80
2022/03/27 06:09:55;;;;;;;20.70;8.90;;;;;;;16.05;31.34;95609.13;5061558;28;20223;-80
2022/03/27 06:12:22;;;;;;;16.15;8.95;;;;;;;16.50;30.93;95603.59;5074719;28;20201;-80
2022/03/27 06:14:50;;;;;;;21.80;10.10;;;;;;;17.34;30.26;95593.75;5072110;28;20245;-83
2022/03/27 06:17:19;;;;;;;23.13;10.73;;;;;;;17.10;30.38;95602.00;5072187;28;20215;-81
2022/03/27 06:19:46;;;;;;;20.27;9.73;;;;;;;16.74;30.35;95605.56;5073227;28;20198;-80
2022/03/27 06:22:13;;;;;;;21.02;9.68;;;;;;;16.67;30.43;95614.38;5070863;28;20198;-80
2022/03/27 06:24:40;;;;;;;23.02;9.55;;;;;;;17.64;29.68;95605.97;5074540;28;20223;-83
2022/03/27 06:27:07;;;;;;;19.83;9.52;;;;;;;17.20;29.82;95594.13;5072903;28;20207;-82
2022/03/27 06:29:34;;;;;;;21.05;9.40;;;;;;;17.46;29.55;95599.19;5072294;28;20316;-80
2022/03/27 06:32:03;;;;;;;17.45;9.50;;;;;;;15.15;32.80;95601.56;5072632;28;20219;-80
2022/03/27 06:34:31;;;;;;;21.98;9.95;;;;;;;15.72;32.15;95598.19;5072991;28;20191;-78
2022/03/27 06:36:58;;;;;;;20.30;9.98;;;;;;;16.55;30.41;95606.91;5080667;28;20673;-82
2022/03/27 06:39:25;;;;;;;21.77;10.27;;;;;;;17.11;30.59;95581.69;5079197;28;20214;-81
2022/03/27 06:41:52;;;;;;;20.30;10.20;;;;;;;17.20;29.97;95598.78;5085650;28;20203;-80
2022/03/27 06:44:19;;;;;;;22.58;9.45;;;;;;;17.93;28.84;95601.28;5086769;28;20665;-83
2022/03/27 06:46:45;;;;;;;21.70;10.48;;;;;;;17.52;29.52;95597.78;5084922;28;20737;-78
2022/03/27 06:49:14;;;;;;;19.20;10.18;;;;;;;17.70;29.55;95598.31;5086345;28;20199;-77
2022/03/27 06:51:40;;;;;;;23.05;9.70;;;;;;;17.88;29.06;95604.31;5079912;28;20253;-76
2022/03/27 06:54:07;;;;;;;25.48;12.18;;;;;;;17.05;30.10;95606.59;5077384;28;20565;-76
2022/03/27 06:56:34;;;;;;;27.10;11.43;;;;;;;18.00;29.28;95606.97;5080981;28;20194;-78
2022/03/27 06:59:01;;;;;;;22.50;11.38;;;;;;;17.69;29.52;95608.47;5075495;28;20330;-73
2022/03/27 07:04:14;;;;;;;21.23;12.10;;;;;;;16.70;31.33;95611.72;5082814;28;20360;-74
2022/03/27 07:06:42;;;;;;;21.95;12.38;;;;;;;17.42;30.42;95614.72;5083122;28;20202;-75
2022/03/27 07:09:10;;;;;;;32.58;13.13;;;;;;;16.75;30.87;95616.19;5073786;28;20226;-74
2022/03/27 07:11:37;;;;;;;25.10;12.93;;;;;;;16.53;31.34;95624.81;5071764;28;20309;-76
2022/03/27 07:14:04;;;;;;;24.75;13.02;;;;;;;15.81;32.66;95618.03;5085763;28;20211;-76
2022/03/27 07:16:31;;;;;;;24.13;13.80;;;;;;;15.63;32.65;95629.13;5084707;28;20590;-77
2022/03/27 07:18:58;;;;;;;23.85;13.35;;;;;;;16.18;32.17;95627.94;5078888;28;20251;-78
2022/03/27 07:21:26;;;;;;;25.13;13.30;;;;;;;16.15;31.96;95636.81;5078438;28;20203;-78
2022/03/27 07:23:53;;;;;;;29.00;14.35;;;;;;;15.57;33.28;95637.88;5071418;28;20679;-78
2022/03/27 07:26:21;;;;;;;24.25;13.32;;;;;;;15.14;34.03;95621.78;5071196;28;20203;-75
2022/03/27 07:28:47;;;;;;;29.67;14.43;;;;;;;15.47;33.62;95625.38;5065535;28;20222;-75
2022/03/27 07:31:15;;;;;;;28.92;14.77;;;;;;;15.43;33.41;95619.00;5078111;28;20608;-76
2022/03/27 07:33:42;;;;;;;24.75;14.13;;;;;;;15.13;33.72;95620.19;5084142;28;20229;-74
2022/03/27 07:36:10;;;;;;;30.58;13.68;;;;;;;16.00;32.60;95612.84;5085271;28;20282;-76
2022/03/27 07:38:38;;;;;;;26.70;14.77;;;;;;;16.08;32.08;95617.44;5074509;28;20201;-77
2022/03/27 07:41:05;;;;;;;24.88;14.38;;;;;;;14.91;34.16;95613.88;5072986;28;20203;-74
2022/03/27 07:43:32;;;;;;;26.45;14.65;;;;;;;14.80;34.75;95617.34;5079483;28;20209;-75
2022/03/27 07:45:59;;;;;;;29.25;14.52;;;;;;;14.83;34.71;95606.56;5071110;28;20695;-75
2022/03/27 07:48:26;;;;;;;28.05;14.30;;;;;;;15.37;33.76;95614.06;5067635;28;20573;-75
2022/03/27 07:50:56;;;;;;;36.45;15.77;;;;;;;15.58;34.01;95610.19;5079216;28;20331;-80
2022/03/27 07:53:23;;;;;;;25.83;14.40;;;;;;;14.64;34.21;95608.91;5069526;28;20210;-79
2022/03/27 07:55:52;;;;;;;28.35;14.63;;;;;;;15.04;34.72;95605.78;5082638;28;20285;-75
2022/03/27 07:58:19;;;;;;;26.70;13.68;;;;;;;15.35;34.19;95611.66;5079017;28;20203;-76
2022/03/27 08:00:45;;;;;;;29.92;14.13;;;;;;;15.37;34.46;95609.41;5076241;28;20210;-75
2022/03/27 08:03:13;;;;;;;29.42;13.70;;;;;;;15.80;33.54;95600.06;5080598;28;20238;-75
2022/03/27 08:05:42;;;;;;;24.67;13.95;;;;;;;15.67;33.45;95598.41;5069357;28;20223;-74
2022/03/27 08:08:08;;;;;;;25.00;12.00;;;;;;;15.35;33.24;95600.75;5069465;28;20704;-75
2022/03/27 08:10:35;;;;;;;22.92;12.73;;;;;;;15.45;33.93;95594.06;5060043;28;20207;-75
2022/03/27 08:13:03;;;;;;;28.00;13.30;;;;;;;15.42;34.65;95601.00;5067810;28;20211;-75
2022/03/27 08:15:30;;;;;;;23.88;13.63;;;;;;;16.11;32.43;95589.44;5082789;28;20245;-75
2022/03/27 08:17:57;;;;;;;20.48;10.50;;;;;;;15.48;32.62;95605.13;5080114;28;20198;-71
2022/03/27 08:20:26;;;;;;;20.15;10.07;;;;;;;15.40;31.29;95581.44;5070867;28;20641;-74
2022/03/27 08:22:54;;;;;;;20.25;10.43;;;;;;;15.19;31.71;95591.53;5068759;28;20290;-74
2022/03/27 08:28:08;;;;;;;20.45;10.25;;;;;;;15.61;31.11;95576.75;5068773;28;20226;-74
2022/03/27 08:30:35;;;;;;;22.83;11.75;;;;;;;15.86;31.10;95574.91;5069827;28;20597;-75
2022/03/27 08:33:03;;;;;;;16.58;9.18;;;;;;;15.57;30.94;95575.84;5083361;28;20543;-72
2022/03/27 08:35:30;;;;;;;21.15;10.45;;;;;;;15.98;30.80;95568.69;5078487;28;20564;-70
2022/03/27 08:37:57;;;;;;;19.63;8.57;;;;;;;15.64;30.75;95573.34;5076430;28;20313;-72
2022/03/27 08:40:24;;;;;;;17.67;10.50;;;;;;;16.00;30.23;95569.13;5080612;28;20198;-75
2022/03/27 08:42:51;;;;;;;16.45;8.18;;;;;;;16.08;30.54;95557.31;5082612;28;20203;-71
2022/03/27 08:45:20;;;;;;;21.02;11.02;;;;;;;16.45;30.50;95558.13;5068659;28;20250;-74
2022/03/27 08:47:47;;;;;;;22.55;11.45;;;;;;;16.57;30.06;95562.78;5068717;28;20200;-74
2022/03/27 08:50:26;;;;;;;21.20;10.27;;;;;;;16.16;30.31;95564.59;5079239;28;20317;-72
2022/03/27 08:52:57;;;;;;;18.55;9.93;;;;;;;16.00;30.92;95552.72;5076163;28;20194;-78
2022/03/27 08:55:42;;;;;;;19.90;10.02;;;;;;;16.15;30.94;95554.78;5076866;28;20203;-78
2022/03/27 08:58:11;;;;;;;22.75;11.18;;;;;;;16.53;30.64;95551.75;5063623;28;20209;-72
2022/03/27 09:00:40;;;;;;;26.10;11.40;;;;;;;17.04;29.86;95555.69;5076294;28;20214;-74
2022/03/27 09:03:08;;;;;;;20.88;11.02;;;;;;;17.04;29.41;95547.50;5080216;28;20223;-73
2022/03/27 09:05:36;;;;;;;15.80;7.40;;;;;;;16.21;30.02;95556.19;5071972;28;20235;-72
2022/03/27 09:08:07;;;;;;;19.60;10.57;;;;;;;16.40;30.43;95550.13;5080211;28;20223;-70
2022/03/27 09:10:34;;;;;;;29.50;10.93;;;;;;;16.79;30.78;95554.16;5056018;28;20845;-75
2022/03/27 09:13:06;;;;;;;20.10;9.63;;;;;;;16.64;30.09;95557.59;5079690;28;20820;-75
2022/03/27 09:15:33;;;;;;;22.85;11.23;;;;;;;16.39;30.88;95555.97;5066374;28;20282;-76
2022/03/27 09:18:04;;;;;;;17.23;9.43;;;;;;;16.30;30.53;95554.13;5060716;28;20203;-74
2022/03/27 09:20:43;;;;;;;22.42;11.20;;;;;;;16.33;30.07;95564.38;5083131;28;20202;-75
2022/03/27 09:23:23;;;;;;;20.48;11.15;;;;;;;16.57;30.31;95541.69;5069595;28;20201;-74
2022/03/27 09:25:55;;;;;;;25.13;11.32;;;;;;;16.66;30.14;95549.84;5079409;28;20222;-73
2022/03/27 09:28:24;;;;;;;21.50;11.90;;;;;;;16.67;29.79;95546.72;5085697;28;20213;-73
2022/03/27 09:30:51;;;;;;;23.45;11.50;;;;;;;16.92;28.92;95533.84;5083075;28;20222;-74
2022/03/27 09:33:34;;;;;;;21.58;10.65;;;;;;;16.67;28.77;95532.28;5079882;28;20284;-74
2022/03/27 09:36:05;;;;;;;17.55;8.02;;;;;;;16.68;28.38;95525.63;5080106;28;20195;-73
2022/03/27 09:38:32;;;;;;;19.75;11.60;;;;;;;16.65;28.74;95537.28;5066969;28;20244;-76
2022/03/27 09:40:59;;;;;;;23.08;9.85;;;;;;;16.59;28.18;95538.63;5079348;28;20199;-72
2022/03/27 09:43:26;;;;;;;21.38;11.60;;;;;;;16.56;28.20;95533.84;5085296;28;20207;-74
2022/03/27 09:45:58;;;;;;;24.40;11.43;;;;;;;16.76;28.80;95535.69;5073837;28;20231;-73
2022/03/27 09:48:25;;;;;;;21.95;10.75;;;;;;;16.88;27.89;95530.19;5084602;28;20551;-75
2022/03/27 09:50:54;;;;;;;22.77;10.55;;;;;;;16.78;28.21;95541.63;5085885;28;20234;-78
2022/03/27 09:53:23;;;;;;;26.05;11.18;;;;;;;16.90;28.96;95538.84;5081675;28;20198;-76
2022/03/27 09:56:14;;;;;;;17.88;9.88;;;;;;;16.76;27.86;95511.06;5079267;28;20264;-77
2022/03/27 09:58:43;;;;;;;23.15;11.15;;;;;;;16.96;27.64;95525.69;5079646;28;20203;-74
2022/03/27 10:01:12;;;;;;;16.42;9.10;;;;;;;16.93;28.05;95521.75;5072135;28;20195;-81
2022/03/27 10:03:58;;;;;;;18.67;7.57;;;;;;;16.88;27.23;95524.72;5073736;28;20685;-71
2022/03/27 10:06:31;;;;;;;19.08;7.32;;;;;;;16.82;27.52;95514.31;5071023;28;20300;-75
2022/03/27 10:08:58;;;;;;;18.58;7.70;;;;;;;16.78;27.18;95502.50;5082053;28;20200;-71
2022/03/27 10:11:26;;;;;;;19.60;10.15;;;;;;;17.02;27.23;95505.16;5052636;28;20207;-78
2022/03/27 10:13:56;;;;;;;22.35;9.73;;;;;;;17.56;27.64;95499.25;5073807;28;20704;-82
2022/03/27 10:16:26;;;;;;;22.25;7.80;;;;;;;17.16;25.82;95485.63;5080762;28;20206;-73
2022/03/27 10:19:10;;;;;;;20.63;9.00;;;;;;;17.37;26.35;95495.22;5085436;28;20195;-76
2022/03/27 10:21:42;;;;;;;18.60;9.38;;;;;;;17.73;26.23;95488.78;5066592;28;20206;-76
2022/03/27 10:24:16;;;;;;;15.70;8.40;;;;;;;17.57;25.80;95496.16;5071718;28;20585;-75
2022/03/27 10:26:46;;;;;;;16.13;9.48;;;;;;;17.49;25.77;95488.91;5069325;28;20732;-74
2022/03/27 10:29:15;;;;;;;14.45;5.75;;;;;;;17.59;24.98;95485.66;5071386;28;20298;-69
2022/03/27 10:31:42;;;;;;;17.67;8.93;;;;;;;17.16;26.05;95491.09;5069772;28;20198;-75
2022/03/27 10:34:13;;;;;;;17.45;8.70;;;;;;;17.49;26.27;95477.94;5071720;28;20191;-74
2022/03/27 10:36:49;;;;;;;17.02;9.50;;;;;;;17.90;25.99;95464.94;5071641;28;20187;-74
2022/03/27 10:39:24;;;;;;;17.65;8.95;;;;;;;17.72;25.19;95475.44;5070794;28;20194;-71
2022/03/27 10:42:02;;;;;;;15.32;7.78;;;;;;;17.75;24.47;95480.22;5070768;28;20187;-73
2022/03/27 10:44:41;;;;;;;14.43;8.50;;;;;;;17.70;25.41;95473.03;5070110;28;20561;-77
2022/03/27 10:47:13;;;;;;;13.75;7.80;;;;;;;18.02;25.00;95468.38;5076485;28;20704;-74
2022/03/27 10:49:41;;;;;;;17.05;7.97;;;;;;;17.88;26.08;95468.03;5070800;28;20222;-74
2022/03/27 10:52:11;;;;;;;17.73;7.35;;;;;;;17.73;24.63;95466.88;5073651;28;20631;-78
2022/03/27 10:55:00;;;;;;;14.13;7.32;;;;;;;17.87;23.55;95471.13;5071994;28;20260;-73
2022/03/27 10:57:31;;;;;;;13.25;8.07;;;;;;;17.62;25.33;95460.28;5061553;28;20281;-74
2022/03/27 10:59:59;;;;;;;15.18;8.75;;;;;;;17.66;25.73;95461.19;5071227;28;20199;-73
2022/03/27 11:02:45;;;;;;;15.13;8.85;;;;;;;18.21;25.71;95451.19;5070732;28;20272;-75
2022/03/27 11:05:50;;;;;;;14.68;8.98;;;;;;;18.21;25.59;95442.97;5085199;28;20297;-73
2022/03/27 11:08:49;;;;;;;17.65;9.73;;;;;;;18.10;25.45;95452.88;5075109;28;20206;-73
2022/03/27 11:12:01;;;;;;;19.73;9.60;;;;;;;18.25;24.99;95435.63;5069909;28;20229;-74
2022/03/27 11:15:01;;;;;;;13.18;7.40;;;;;;;17.94;24.62;95441.13;5067823;28;20199;-71
2022/03/27 11:17:43;;;;;;;17.13;8.95;;;;;;;18.27;24.59;95438.00;5063684;28;20258;-71
2022/03/27 11:20:13;;;;;;;18.52;9.40;;;;;;;18.33;25.61;95439.31;5059926;28;20221;-72
2022/03/27 11:22:47;;;;;;;21.73;10.07;;;;;;;18.01;25.56;95442.09;5080102;28;20206;-71
2022/03/27 11:25:36;;;;;;;20.60;8.73;;;;;;;18.30;25.29;95424.38;5083242;28;20230;-72
2022/03/27 11:28:12;;;;;;;22.45;9.82;;;;;;;18.43;24.24;95422.31;5083284;28;20194;-73
2022/03/27 11:31:06;;;;;;;18.58;9.68;;;;;;;18.51;24.72;95413.06;5063636;28;20199;-74
2022/03/27 11:33:33;;;;;;;21.13;9.30;;;;;;;18.26;24.20;95420.75;5072258;28;20684;-73
2022/03/27 11:36:22;;;;;;;21.60;9.68;;;;;;;18.31;24.85;95420.47;5069183;28;20230;-75
2022/03/27 11:39:02;;;;;;;20.80;11.70;;;;;;;18.30;25.27;95413.41;5057795;28;20214;-76
2022/03/27 11:41:34;;;;;;;21.02;12.52;;;;;;;18.08;24.71;95416.78;5073709;28;20300;-77